createdAt,value
2022-10-02T00:02:21.507Z,101103.75
2022-10-02T00:04:54.317Z,101108.50
2022-10-02T00:07:24.932Z,101105.16
2022-10-02T00:09:56.622Z,101102.03
2022-10-02T00:12:26.229Z,101110.72
2022-10-02T00:15:01.261Z,101111.88
2022-10-02T00:17:40.340Z,101104.78
2022-10-02T00:20:17.546Z,101104.66
2022-10-02T00:23:10.273Z,101111.53
2022-10-02T00:25:44.864Z,101108.03
2022-10-02T00:28:11.275Z,101123.00
2022-10-02T00:30:49.256Z,101132.97
2022-10-02T00:33:54.425Z,101126.53
2022-10-02T00:36:34.879Z,101130.97
2022-10-02T00:39:10.859Z,101133.28
2022-10-02T00:41:58.466Z,101127.22
2022-10-02T00:44:39.393Z,101127.34
2022-10-02T00:47:20.226Z,101125.53
2022-10-02T00:49:55.224Z,101127.09
2022-10-02T00:52:27.368Z,101121.69
2022-10-02T00:55:09.484Z,101114.72
2022-10-02T00:57:41.576Z,101112.75
2022-10-02T01:00:18.909Z,101119.16
2022-10-02T01:03:06.970Z,101119.41
2022-10-02T01:05:34.693Z,101119.41
2022-10-02T01:08:02.211Z,101116.19
2022-10-02T01:10:29.589Z,101109.59
2022-10-02T01:12:57.341Z,101117.38
2022-10-02T01:15:30.903Z,101114.78
2022-10-02T01:17:58.045Z,101127.06
2022-10-02T01:20:37.778Z,101114.94
2022-10-02T01:23:38.093Z,101114.19
2022-10-02T01:26:04.831Z,101120.03
2022-10-02T01:28:31.563Z,101125.81
2022-10-02T01:31:04.890Z,101113.25
2022-10-02T01:33:32.273Z,101100.88
2022-10-02T01:35:59.233Z,101095.19
2022-10-02T01:38:27.729Z,101095.44
2022-10-02T01:40:54.181Z,101103.84
2022-10-02T01:43:37.185Z,101102.00
2022-10-02T01:46:24.430Z,101096.19
2022-10-02T01:49:26.310Z,101095.72
2022-10-02T01:52:13.023Z,101093.78
2022-10-02T01:55:07.449Z,101087.19
2022-10-02T01:58:33.694Z,101089.56
2022-10-02T02:01:20.336Z,101090.81
2022-10-02T02:04:04.669Z,101084.63
2022-10-02T02:06:58.392Z,101100.38
2022-10-02T02:09:43.037Z,101102.94
2022-10-02T02:12:12.171Z,101101.25
2022-10-02T02:14:53.374Z,101101.25
2022-10-02T02:17:39.618Z,101108.41
2022-10-02T02:20:12.793Z,101103.75
2022-10-02T02:22:45.571Z,101106.34
2022-10-02T02:25:20.056Z,101101.41
2022-10-02T02:27:52.374Z,101094.69
2022-10-02T02:30:20.770Z,101115.38
2022-10-02T02:32:52.216Z,101102.72
2022-10-02T02:35:34.096Z,101117.19
2022-10-02T02:38:06.160Z,101117.59
2022-10-02T02:40:39.398Z,101121.88
2022-10-02T02:43:15.119Z,101122.66
2022-10-02T02:45:49.146Z,101120.06
2022-10-02T02:48:22.243Z,101127.31
2022-10-02T02:50:57.464Z,101128.38
2022-10-02T02:53:33.447Z,101127.28
2022-10-02T02:56:02.568Z,101143.19
2022-10-02T02:58:39.770Z,101126.53
2022-10-02T03:01:06.295Z,101122.66
2022-10-02T03:03:33.018Z,101131.94
2022-10-02T03:06:18.844Z,101132.06
2022-10-02T03:08:47.584Z,101133.72
2022-10-02T03:11:40.248Z,101124.19
2022-10-02T03:14:12.908Z,101135.56
2022-10-02T03:17:07.836Z,101131.16
2022-10-02T03:19:47.910Z,101129.63
2022-10-02T03:22:28.052Z,101139.56
2022-10-02T03:25:12.150Z,101146.81
2022-10-02T03:28:07.271Z,101151.84
2022-10-02T03:30:36.145Z,101156.22
2022-10-02T03:33:04.976Z,101155.84
2022-10-02T03:35:32.447Z,101162.53
2022-10-02T03:38:05.711Z,101164.22
2022-10-02T03:40:32.254Z,101159.81
2022-10-02T03:42:58.968Z,101160.41
2022-10-02T03:45:49.575Z,101169.47
2022-10-02T03:48:13.200Z,101177.50
2022-10-02T03:50:39.665Z,101175.81
2022-10-02T03:53:19.913Z,101180.59
2022-10-02T03:55:57.743Z,101181.31
2022-10-02T03:58:25.610Z,101186.34
2022-10-02T04:00:58.389Z,101194.88
2022-10-02T04:03:33.571Z,101192.84
2022-10-02T04:06:04.820Z,101199.28
2022-10-02T04:08:41.518Z,101197.47
2022-10-02T04:11:25.264Z,101195.66
2022-10-02T04:14:10.147Z,101205.63
2022-10-02T04:16:43.307Z,101212.63
2022-10-02T04:19:25.186Z,101206.81
2022-10-02T04:22:02.570Z,101201.16
2022-10-02T04:24:38.285Z,101206.31
2022-10-02T04:27:22.759Z,101205.13
2022-10-02T04:29:57.410Z,101208.34
2022-10-02T04:32:30.275Z,101207.19
2022-10-02T04:34:57.841Z,101210.44
2022-10-02T04:37:51.950Z,101201.88
2022-10-02T04:40:52.326Z,101203.19
2022-10-02T04:43:37.338Z,101217.16
2022-10-02T04:46:13.069Z,101212.88
2022-10-02T04:49:05.589Z,101224.50
2022-10-02T04:51:46.893Z,101221.03
2022-10-02T04:54:28.863Z,101233.94
2022-10-02T04:57:14.068Z,101232.88
2022-10-02T05:00:05.141Z,101220.47
2022-10-02T05:02:34.544Z,101221.25
2022-10-02T05:05:30.385Z,101217.25
2022-10-02T05:08:15.176Z,101215.84
2022-10-02T05:10:44.460Z,101221.72
2022-10-02T05:13:32.241Z,101228.44
2022-10-02T05:16:08.564Z,101236.59
2022-10-02T05:18:44.248Z,101246.53
2022-10-02T05:21:25.741Z,101259.44
2022-10-02T05:24:01.216Z,101266.03
2022-10-02T05:26:39.069Z,101256.09
2022-10-02T05:29:31.510Z,101254.56
2022-10-02T05:32:03.712Z,101265.91
2022-10-02T05:34:48.822Z,101270.47
2022-10-02T05:37:42.449Z,101275.09
2022-10-02T05:40:25.125Z,101283.59
2022-10-02T05:42:54.433Z,101280.25
2022-10-02T05:45:30.949Z,101279.47
2022-10-02T05:48:07.697Z,101285.03
2022-10-02T05:50:36.679Z,101279.75
2022-10-02T05:53:10.526Z,101294.31
2022-10-02T05:55:44.903Z,101289.31
2022-10-02T05:58:22.735Z,101302.06
2022-10-02T06:01:00.664Z,101296.16
2022-10-02T06:03:39.734Z,101293.56
2022-10-02T06:06:12.702Z,101301.66
2022-10-02T06:08:47.311Z,101307.88
2022-10-02T06:11:24.382Z,101302.06
2022-10-02T06:14:19.969Z,101300.53
2022-10-02T06:16:55.177Z,101310.53
2022-10-02T06:19:29.925Z,101318.91
2022-10-02T06:22:07.673Z,101328.72
2022-10-02T06:24:43.802Z,101330.06
2022-10-02T06:27:17.525Z,101317.91
2022-10-02T06:29:50.961Z,101326.19
2022-10-02T06:32:43.487Z,101327.41
2022-10-02T06:35:15.727Z,101320.47
2022-10-02T06:38:01.205Z,101333.06
2022-10-02T06:40:42.653Z,101344.81
2022-10-02T06:43:40.400Z,101344.22
2022-10-02T06:46:34.264Z,101345.66
2022-10-02T06:49:11.406Z,101343.25
2022-10-02T06:51:59.401Z,101353.72
2022-10-02T06:54:45.020Z,101356.81
2022-10-02T06:57:11.566Z,101355.19
2022-10-02T07:00:14.216Z,101357.63
2022-10-02T07:03:02.628Z,101355.78
2022-10-02T07:05:37.308Z,101366.91
2022-10-02T07:08:12.734Z,101361.38
2022-10-02T07:10:49.899Z,101378.59
2022-10-02T07:13:35.470Z,101372.28
2022-10-02T07:16:09.221Z,101369.19
2022-10-02T07:18:58.667Z,101368.06
2022-10-02T07:21:46.192Z,101373.22
2022-10-02T07:24:41.896Z,101365.22
2022-10-02T07:27:14.925Z,101357.47
2022-10-02T07:29:53.692Z,101348.44
2022-10-02T07:32:38.761Z,101361.25
2022-10-02T07:35:22.003Z,101351.19
2022-10-02T07:38:15.637Z,101349.13
2022-10-02T07:41:04.657Z,101353.38
2022-10-02T07:43:36.719Z,101355.22
2022-10-02T07:46:48.044Z,101347.94
2022-10-02T07:49:24.659Z,101344.84
2022-10-02T07:52:15.205Z,101350.78
2022-10-02T07:55:00.384Z,101364.50
2022-10-02T07:57:49.483Z,101353.25
2022-10-02T08:00:19.002Z,101368.50
2022-10-02T08:03:08.337Z,101354.41
2022-10-02T08:05:47.721Z,101352.59
2022-10-02T08:08:24.033Z,101353.44
2022-10-02T08:10:58.977Z,101360.03
2022-10-02T08:13:32.823Z,101359.25
2022-10-02T08:15:59.673Z,101362.34
2022-10-02T08:18:43.395Z,101358.16
2022-10-02T08:21:15.552Z,101348.53
2022-10-02T08:23:50.153Z,101360.03
2022-10-02T08:26:22.644Z,101366.50
2022-10-02T08:29:05.359Z,101368.94
2022-10-02T08:31:35.355Z,101373.25
2022-10-02T08:34:13.547Z,101374.78
2022-10-02T08:36:54.872Z,101372.78
2022-10-02T08:39:40.243Z,101361.72
2022-10-02T08:42:24.977Z,101357.25
2022-10-02T08:45:22.297Z,101363.16
2022-10-02T08:48:23.246Z,101361.81
2022-10-02T08:51:01.715Z,101364.13
2022-10-02T08:53:49.597Z,101359.63
2022-10-02T08:56:19.951Z,101353.78
2022-10-02T08:58:58.552Z,101356.03
2022-10-02T09:01:59.547Z,101343.75
2022-10-02T09:04:40.709Z,101351.53
2022-10-02T09:07:28.193Z,101361.28
2022-10-02T09:10:29.039Z,101359.34
2022-10-02T09:13:31.898Z,101357.47
2022-10-02T09:16:12.281Z,101349.44
2022-10-02T09:18:56.257Z,101346.81
2022-10-02T09:21:56.102Z,101320.28
2022-10-02T09:24:43.164Z,101311.13
2022-10-02T09:27:31.304Z,101311.81
2022-10-02T09:30:20.031Z,101300.47
2022-10-02T09:33:27.217Z,101311.94
2022-10-02T09:36:01.781Z,101312.59
2022-10-02T09:38:53.277Z,101308.19
2022-10-02T09:41:31.915Z,101317.91
2022-10-02T09:44:18.487Z,101318.81
2022-10-02T09:47:06.111Z,101335.47
2022-10-02T09:49:50.737Z,101338.41
2022-10-02T09:52:23.266Z,101330.91
2022-10-02T09:55:17.687Z,101331.28
2022-10-02T09:58:11.115Z,101329.91
2022-10-02T10:00:56.984Z,101316.97
2022-10-02T10:03:39.637Z,101308.72
2022-10-02T10:06:18.297Z,101307.28
2022-10-02T10:09:12.424Z,101306.06
2022-10-02T10:12:15.717Z,101295.13
2022-10-02T10:15:09.446Z,101285.28
2022-10-02T10:17:55.708Z,101284.47
2022-10-02T10:20:36.706Z,101282.41
2022-10-02T10:23:05.278Z,101277.06
2022-10-02T10:25:50.389Z,101278.44
2022-10-02T10:28:19.988Z,101264.44
2022-10-02T10:31:10.946Z,101263.03
2022-10-02T10:33:56.206Z,101269.13
2022-10-02T10:37:14.393Z,101263.34
2022-10-02T10:40:02.501Z,101274.72
2022-10-02T10:43:07.523Z,101267.31
2022-10-02T10:45:54.712Z,101262.22
2022-10-02T10:48:39.528Z,101265.34
2022-10-02T10:51:31.551Z,101267.63
2022-10-02T10:54:01.757Z,101260.25
2022-10-02T10:56:37.317Z,101265.03
2022-10-02T10:59:37.036Z,101261.78
2022-10-02T11:02:14.288Z,101253.75
2022-10-02T11:05:11.827Z,101256.75
2022-10-02T11:08:23.113Z,101247.72
2022-10-02T11:11:27.828Z,101244.75
2022-10-02T11:14:21.862Z,101232.91
2022-10-02T11:17:13.372Z,101232.50
2022-10-02T11:20:19.046Z,101233.63
2022-10-02T11:23:20.638Z,101223.69
2022-10-02T11:26:10.249Z,101223.19
2022-10-02T11:29:07.203Z,101216.00
2022-10-02T11:32:05.781Z,101210.41
2022-10-02T11:34:51.302Z,101204.44
2022-10-02T11:37:39.359Z,101205.41
2022-10-02T11:40:34.816Z,101204.16
2022-10-02T11:43:22.568Z,101202.56
2022-10-02T11:46:16.917Z,101193.38
2022-10-02T11:48:59.189Z,101191.41
2022-10-02T11:51:35.949Z,101191.41
2022-10-02T11:54:44.815Z,101185.00
2022-10-02T11:57:39.862Z,101188.75
2022-10-02T12:00:14.048Z,101183.41
2022-10-02T12:02:43.159Z,101184.16
2022-10-02T12:05:55.172Z,101177.34
2022-10-02T12:08:36.369Z,101165.03
2022-10-02T12:11:15.079Z,101162.16
2022-10-02T12:13:48.870Z,101161.03
2022-10-02T12:16:36.953Z,101161.13
2022-10-02T12:19:33.971Z,101142.94
2022-10-02T12:22:45.877Z,101144.00
2022-10-02T12:25:49.193Z,101136.78
2022-10-02T12:28:36.158Z,101115.25
2022-10-02T12:31:14.316Z,101114.84
2022-10-02T12:34:01.181Z,101111.34
2022-10-02T12:36:44.448Z,101107.00
2022-10-02T12:39:37.183Z,101098.00
2022-10-02T12:42:15.622Z,101099.97
2022-10-02T12:45:19.843Z,101102.06
2022-10-02T12:48:04.473Z,101096.72
2022-10-02T12:50:47.703Z,101092.16
2022-10-02T12:53:14.197Z,101088.63
2022-10-02T12:56:02.700Z,101092.75
2022-10-02T12:58:53.756Z,101091.09
2022-10-02T13:01:43.114Z,101088.31
2022-10-02T13:04:28.689Z,101080.63
2022-10-02T13:06:58.062Z,101078.81
2022-10-02T13:09:28.059Z,101078.25
2022-10-02T13:12:12.952Z,101075.22
2022-10-02T13:15:17.151Z,101069.41
2022-10-02T13:18:07.237Z,101063.03
2022-10-02T13:21:06.128Z,101063.06
2022-10-02T13:23:46.640Z,101057.91
2022-10-02T13:26:45.261Z,101056.06
2022-10-02T13:29:57.865Z,101064.09
2022-10-02T13:32:52.135Z,101052.66
2022-10-02T13:35:46.449Z,101050.50
2022-10-02T13:38:50.050Z,101054.53
2022-10-02T13:41:16.440Z,101041.63
2022-10-02T13:43:49.914Z,101034.44
2022-10-02T13:46:37.442Z,101027.25
2022-10-02T13:49:20.375Z,101023.06
2022-10-02T13:51:57.631Z,101024.06
2022-10-02T13:54:50.199Z,101017.59
2022-10-02T13:57:43.073Z,101015.44
2022-10-02T14:00:10.292Z,101012.69
2022-10-02T14:02:48.459Z,101004.81
2022-10-02T14:05:31.533Z,101000.63
2022-10-02T14:08:19.092Z,100993.03
2022-10-02T14:10:54.109Z,100984.78
2022-10-02T14:13:38.829Z,100985.31
2022-10-02T14:16:31.767Z,100979.34
2022-10-02T14:19:07.700Z,100977.63
2022-10-02T14:21:46.982Z,100968.69
2022-10-02T14:24:47.188Z,100975.50
2022-10-02T14:27:45.910Z,100969.31
2022-10-02T14:30:20.301Z,100970.97
2022-10-02T14:33:06.773Z,100966.31
2022-10-02T14:35:42.315Z,100962.31
2022-10-02T14:38:24.449Z,100964.94
2022-10-02T14:40:54.992Z,100960.09
2022-10-02T14:43:43.333Z,100964.81
2022-10-02T14:46:21.772Z,100958.97
2022-10-02T14:49:09.753Z,100954.53
2022-10-02T14:51:40.498Z,100960.97
2022-10-02T14:54:24.756Z,100961.72
2022-10-02T14:57:30.348Z,100959.94
2022-10-02T15:00:15.236Z,100955.06
2022-10-02T15:02:48.148Z,100946.63
2022-10-02T15:05:42.504Z,100945.13
2022-10-02T15:08:39.786Z,100941.66
2022-10-02T15:11:21.234Z,100943.88
2022-10-02T15:14:00.279Z,100935.16
2022-10-02T15:16:59.440Z,100927.94
2022-10-02T15:19:50.021Z,100923.75
2022-10-02T15:22:32.024Z,100917.44
2022-10-02T15:25:06.779Z,100919.38
2022-10-02T15:27:47.881Z,100917.66
2022-10-02T15:30:21.269Z,100911.16
2022-10-02T15:33:11.448Z,100901.19
2022-10-02T15:36:00.708Z,100907.41
2022-10-02T15:38:58.053Z,100906.53
2022-10-02T15:41:37.518Z,100900.50
2022-10-02T15:44:33.829Z,100893.78
2022-10-02T15:47:11.037Z,100891.88
2022-10-02T15:49:56.398Z,100895.28
2022-10-02T15:52:52.973Z,100897.25
2022-10-02T15:55:22.304Z,100889.22
2022-10-02T15:57:54.755Z,100886.44
2022-10-02T16:00:22.868Z,100889.13
2022-10-02T16:03:19.027Z,100884.66
2022-10-02T16:05:58.684Z,100882.84
2022-10-02T16:08:43.934Z,100881.19
2022-10-02T16:11:33.855Z,100877.34
2022-10-02T16:14:07.921Z,100880.66
2022-10-02T16:16:56.777Z,100882.78
2022-10-02T16:19:32.902Z,100883.28
2022-10-02T16:22:14.422Z,100883.22
2022-10-02T16:25:22.497Z,100882.25
2022-10-02T16:28:10.600Z,100872.25
2022-10-02T16:31:02.698Z,100872.50
2022-10-02T16:33:47.670Z,100872.84
2022-10-02T16:36:31.691Z,100874.91
2022-10-02T16:39:34.339Z,100870.06
2022-10-02T16:42:27.865Z,100865.19
2022-10-02T16:45:03.389Z,100868.25
2022-10-02T16:47:43.117Z,100866.94
2022-10-02T16:50:29.084Z,100869.31
2022-10-02T16:53:05.645Z,100865.50
2022-10-02T16:55:50.756Z,100874.09
2022-10-02T16:58:32.753Z,100867.75
2022-10-02T17:01:25.416Z,100874.91
2022-10-02T17:03:56.504Z,100871.09
2022-10-02T17:06:24.445Z,100870.75
2022-10-02T17:09:05.565Z,100861.69
2022-10-02T17:11:44.321Z,100859.59
2022-10-02T17:15:19.064Z,100864.56
2022-10-02T17:18:21.340Z,100862.47
2022-10-02T17:20:54.544Z,100864.84
2022-10-02T17:23:33.347Z,100868.09
2022-10-02T17:26:14.892Z,100871.38
2022-10-02T17:28:50.260Z,100862.41
2022-10-02T17:31:22.321Z,100866.50
2022-10-02T17:34:02.104Z,100873.19
2022-10-02T17:36:35.578Z,100866.03
2022-10-02T17:39:50.255Z,100867.56
2022-10-02T17:42:22.311Z,100869.94
2022-10-02T17:45:26.172Z,100876.78
2022-10-02T17:48:08.047Z,100873.81
2022-10-02T17:51:11.079Z,100871.63
2022-10-02T17:54:20.701Z,100870.19
2022-10-02T17:57:12.837Z,100868.94
2022-10-02T18:00:05.469Z,100879.34
2022-10-02T18:02:58.296Z,100868.53
2022-10-02T18:05:45.214Z,100867.41
2022-10-02T18:08:45.303Z,100878.47
2022-10-02T18:11:33.988Z,100877.34
2022-10-02T18:14:10.174Z,100883.28
2022-10-02T18:17:06.448Z,100889.41
2022-10-02T18:19:42.037Z,100889.22
2022-10-02T18:22:26.928Z,100886.53
2022-10-02T18:25:12.337Z,100880.94
2022-10-02T18:27:55.707Z,100880.53
2022-10-02T18:30:24.355Z,100885.38
2022-10-02T18:32:51.483Z,100880.63
2022-10-02T18:36:15.014Z,100885.50
2022-10-02T18:38:58.357Z,100877.25
2022-10-02T18:41:42.808Z,100877.19
2022-10-02T18:44:21.222Z,100882.97
2022-10-02T18:46:50.614Z,100886.75
2022-10-02T18:49:44.820Z,100888.81
2022-10-02T18:52:36.112Z,100891.81
2022-10-02T18:55:34.533Z,100896.22
2022-10-02T18:58:20.073Z,100898.25
2022-10-02T19:01:24.059Z,100902.03
2022-10-02T19:04:17.881Z,100896.91
2022-10-02T19:06:54.805Z,100893.50
2022-10-02T19:09:26.888Z,100893.03
2022-10-02T19:11:57.574Z,100899.31
2022-10-02T19:14:42.420Z,100911.47
2022-10-02T19:17:14.070Z,100908.84
2022-10-02T19:19:41.773Z,100909.84
2022-10-02T19:22:38.307Z,100916.09
2022-10-02T19:25:23.668Z,100915.97
2022-10-02T19:27:56.534Z,100921.09
2022-10-02T19:30:29.982Z,100920.56
2022-10-02T19:32:58.802Z,100925.56
2022-10-02T19:35:33.680Z,100920.00
2022-10-02T19:38:20.508Z,100927.47
2022-10-02T19:40:53.399Z,100930.88
2022-10-02T19:43:24.597Z,100935.28
2022-10-02T19:45:57.186Z,100941.66
2022-10-02T19:48:27.176Z,100941.75
2022-10-02T19:50:59.450Z,100951.81
2022-10-02T19:53:47.803Z,100955.75
2022-10-02T19:56:24.222Z,100950.00
2022-10-02T19:58:58.544Z,100952.22
2022-10-02T20:01:28.551Z,100950.44
2022-10-02T20:04:01.078Z,100946.00
2022-10-02T20:06:31.966Z,100942.78
2022-10-02T20:09:03.345Z,100940.56
2022-10-02T20:11:32.748Z,100931.13
2022-10-02T20:14:07.883Z,100938.94
2022-10-02T20:16:53.284Z,100943.16
2022-10-02T20:19:25.810Z,100942.78
2022-10-02T20:21:57.291Z,100943.59
2022-10-02T20:24:37.302Z,100945.31
2022-10-02T20:27:11.315Z,100943.41
2022-10-02T20:29:46.963Z,100948.59
2022-10-02T20:32:21.564Z,100941.50
2022-10-02T20:34:56.472Z,100943.75
2022-10-02T20:37:29.336Z,100937.28
2022-10-02T20:40:03.351Z,100939.66
2022-10-02T20:42:35.557Z,100941.28
2022-10-02T20:45:02.033Z,100932.28
2022-10-02T20:48:03.053Z,100931.94
2022-10-02T20:51:05.730Z,100928.13
2022-10-02T20:53:50.876Z,100932.59
2022-10-02T20:56:52.329Z,100935.31
2022-10-02T21:00:15.052Z,100944.56
2022-10-02T21:03:02.826Z,100940.53
2022-10-02T21:05:37.328Z,100945.66
2022-10-02T21:08:26.106Z,100949.75
2022-10-02T21:10:55.257Z,100940.56
2022-10-02T21:13:45.863Z,100940.19
2022-10-02T21:16:29.828Z,100940.19
2022-10-02T21:19:15.360Z,100933.16
2022-10-02T21:21:44.801Z,100934.56
2022-10-02T21:24:43.879Z,100934.56
2022-10-02T21:27:31.814Z,100931.16
2022-10-02T21:30:17.961Z,100933.69
2022-10-02T21:32:59.619Z,100934.56
2022-10-02T21:35:44.320Z,100945.16
2022-10-02T21:38:43.611Z,100938.19
2022-10-02T21:42:07.302Z,100949.00
2022-10-02T21:44:48.962Z,100954.09
2022-10-02T21:47:43.681Z,100952.78
2022-10-02T21:50:47.353Z,100950.00
2022-10-02T21:53:45.966Z,100961.19
2022-10-02T21:56:52.432Z,100953.81
2022-10-02T21:59:49.909Z,100942.63
2022-10-02T22:02:47.664Z,100940.19
2022-10-02T22:05:38.855Z,100941.91
2022-10-02T22:08:12.071Z,100932.31
2022-10-02T22:10:55.981Z,100940.19
2022-10-02T22:13:37.027Z,100947.28
2022-10-02T22:16:37.473Z,100959.22
2022-10-02T22:19:15.602Z,100964.59
2022-10-02T22:22:12.860Z,100981.38
2022-10-02T22:25:14.104Z,100980.38
2022-10-02T22:27:46.554Z,100967.56
2022-10-02T22:30:28.653Z,100959.97
2022-10-02T22:33:33.075Z,100956.13
2022-10-02T22:36:34.861Z,100945.22
2022-10-02T22:39:27.688Z,100960.50
2022-10-02T22:42:00.263Z,100984.19
2022-10-02T22:44:33.768Z,100994.53
2022-10-02T22:47:00.109Z,100973.19
2022-10-02T22:49:29.373Z,100963.53
2022-10-02T22:52:04.903Z,100959.13
2022-10-02T22:54:35.805Z,100968.63
2022-10-02T22:57:02.118Z,100971.22
2022-10-02T22:59:44.064Z,100969.94
2022-10-02T23:02:52.104Z,100973.66
2022-10-02T23:05:24.660Z,100954.41
2022-10-02T23:08:18.405Z,100951.75
2022-10-02T23:10:51.152Z,100968.94
2022-10-02T23:13:41.144Z,100971.66
2022-10-02T23:16:21.712Z,100965.31
2022-10-02T23:19:15.913Z,100971.91
2022-10-02T23:21:47.911Z,100973.38
2022-10-02T23:24:28.422Z,100969.66
2022-10-02T23:27:13.444Z,100976.13
2022-10-02T23:29:54.936Z,100972.19
2022-10-02T23:32:27.375Z,100970.47
2022-10-02T23:35:00.063Z,100959.66
2022-10-02T23:37:53.669Z,100969.03
2022-10-02T23:40:44.573Z,100972.34
2022-10-02T23:43:16.833Z,100975.59
2022-10-02T23:45:54.098Z,100971.09
2022-10-02T23:48:21.073Z,100969.63
2022-10-02T23:51:09.659Z,100967.28
2022-10-02T23:54:00.323Z,100972.91
2022-10-02T23:57:04.452Z,100982.34
2022-10-02T23:59:47.724Z,100986.78
